createdAt,value
2018-06-15T00:00:16.976Z,16.20
2018-06-15T00:02:51.294Z,16.20
2018-06-15T00:05:20.057Z,16.20
2018-06-15T00:07:48.921Z,16.20
2018-06-15T00:12:46.353Z,16.20
2018-06-15T00:15:15.110Z,16.20
2018-06-15T00:17:43.882Z,16.20
2018-06-15T00:25:09.637Z,16.20
2018-06-15T00:30:07.166Z,16.20
2018-06-15T00:32:35.934Z,16.10
2018-06-15T00:38:01.906Z,16.10
2018-06-15T00:40:30.669Z,16.10
2018-06-15T00:42:59.450Z,16.10
2018-06-15T00:45:28.205Z,16.10
2018-06-15T00:47:56.978Z,16.10
2018-06-15T00:50:25.741Z,16.00
2018-06-15T00:52:54.521Z,16.00
2018-06-15T00:55:23.446Z,16.00
2018-06-15T00:57:52.225Z,15.90
2018-06-15T01:00:20.998Z,16.00
2018-06-15T01:02:49.782Z,15.90
2018-06-15T01:05:18.574Z,16.00
2018-06-15T01:07:47.362Z,15.90
2018-06-15T01:10:16.133Z,15.90
2018-06-15T01:12:44.914Z,15.90
2018-06-15T01:15:13.702Z,15.90
2018-06-15T01:17:42.565Z,15.90
2018-06-15T01:20:11.333Z,15.80
2018-06-15T01:25:09.605Z,15.80
2018-06-15T01:27:38.636Z,15.70
2018-06-15T01:32:36.045Z,15.70
2018-06-15T01:35:04.812Z,15.70
2018-06-15T01:37:33.689Z,15.70
2018-06-15T01:40:02.461Z,15.70
2018-06-15T01:42:31.225Z,15.70
2018-06-15T01:45:00.150Z,15.70
2018-06-15T01:54:54.590Z,15.50
2018-06-15T01:57:23.353Z,15.60
2018-06-15T01:59:52.277Z,15.50
2018-06-15T02:02:21.033Z,15.40
2018-06-15T02:04:49.811Z,15.40
2018-06-15T02:07:18.569Z,15.40
2018-06-15T02:09:47.555Z,15.40
2018-06-15T02:12:16.303Z,15.40
2018-06-15T02:17:13.829Z,15.40
2018-06-15T02:19:42.689Z,15.30
2018-06-15T02:22:11.633Z,15.30
2018-06-15T02:24:40.441Z,15.30
2018-06-15T02:27:09.226Z,15.30
2018-06-15T02:29:38.006Z,15.30
2018-06-15T02:32:06.775Z,15.20
2018-06-15T02:34:35.702Z,15.20
2018-06-15T02:37:04.466Z,15.20
2018-06-15T02:39:33.242Z,15.20
2018-06-15T02:42:02.050Z,15.10
2018-06-15T02:44:30.817Z,15.10
2018-06-15T02:46:59.597Z,15.10
2018-06-15T02:49:28.398Z,15.10
2018-06-15T02:51:57.192Z,15.00
2018-06-15T02:54:25.965Z,15.00
2018-06-15T02:56:54.746Z,15.00
2018-06-15T02:59:23.517Z,15.00
2018-06-15T03:01:52.274Z,14.90
2018-06-15T03:04:21.037Z,14.90
2018-06-15T03:06:49.801Z,14.90
2018-06-15T03:09:18.566Z,14.90
2018-06-15T03:11:47.337Z,14.90
2018-06-15T03:16:44.568Z,14.80
2018-06-15T03:19:13.353Z,14.80
2018-06-15T03:21:42.113Z,14.80
2018-06-15T03:24:10.875Z,14.80
2018-06-15T03:26:39.648Z,14.80
2018-06-15T03:29:08.445Z,14.80
2018-06-15T03:34:05.705Z,14.90
2018-06-15T03:36:34.465Z,14.90
2018-06-15T03:39:05.899Z,14.80
2018-06-15T03:41:34.637Z,14.80
2018-06-15T03:46:32.059Z,14.80
2018-06-15T03:49:01.114Z,14.80
2018-06-15T03:51:29.887Z,14.80
2018-06-15T03:53:58.679Z,14.80
2018-06-15T03:56:27.434Z,14.80
2018-06-15T03:58:56.273Z,14.80
2018-06-15T04:01:25.031Z,14.80
2018-06-15T04:03:54.337Z,14.80
2018-06-15T04:06:23.106Z,14.80
2018-06-15T04:08:51.865Z,14.80
2018-06-15T04:11:20.625Z,14.80
2018-06-15T04:13:49.389Z,14.80
2018-06-15T04:16:18.150Z,14.80
2018-06-15T04:18:46.930Z,14.80
2018-06-15T04:21:15.705Z,14.90
2018-06-15T04:23:44.461Z,14.90
2018-06-15T04:26:13.240Z,14.90
2018-06-15T04:31:10.498Z,14.90
2018-06-15T04:33:39.277Z,14.90
2018-06-15T04:36:08.173Z,14.90
2018-06-15T04:38:36.990Z,15.00
2018-06-15T04:41:06.130Z,14.90
2018-06-15T04:43:35.053Z,15.00
2018-06-15T04:46:03.821Z,15.00
2018-06-15T04:48:32.678Z,14.90
2018-06-15T04:51:01.453Z,15.00
2018-06-15T04:53:30.214Z,15.00
2018-06-15T04:55:59.015Z,15.00
2018-06-15T04:58:27.853Z,15.00
2018-06-15T05:00:56.781Z,15.10
2018-06-15T05:03:25.618Z,15.00
2018-06-15T05:05:54.406Z,15.00
2018-06-15T05:08:23.332Z,15.10
2018-06-15T05:10:52.097Z,15.10
2018-06-15T05:13:20.856Z,15.10
2018-06-15T05:15:49.630Z,15.10
2018-06-15T05:20:47.213Z,15.20
2018-06-15T05:23:16.126Z,15.10
2018-06-15T05:28:13.357Z,15.10
2018-06-15T05:33:10.738Z,15.20
2018-06-15T05:35:39.637Z,15.30
2018-06-15T05:38:08.396Z,15.30
2018-06-15T05:40:37.163Z,15.30
2018-06-15T05:43:05.949Z,15.20
2018-06-15T05:45:34.722Z,15.20
2018-06-15T05:48:03.481Z,15.30
2018-06-15T05:50:32.310Z,15.30
2018-06-15T05:53:01.054Z,15.30
2018-06-15T05:55:29.826Z,15.20
2018-06-15T06:00:27.093Z,15.30
2018-06-15T06:05:24.822Z,15.40
2018-06-15T06:07:53.573Z,15.30
2018-06-15T06:10:23.023Z,15.40
2018-06-15T06:12:51.847Z,15.40
2018-06-15T06:15:20.804Z,15.40
2018-06-15T06:17:49.527Z,15.40
2018-06-15T06:20:18.325Z,15.40
2018-06-15T06:25:15.597Z,15.50
2018-06-15T06:30:12.835Z,15.50
2018-06-15T06:32:41.692Z,15.50
2018-06-15T06:35:10.505Z,15.60
2018-06-15T06:37:39.478Z,15.60
2018-06-15T06:40:08.254Z,15.60
2018-06-15T06:42:37.034Z,15.60
2018-06-15T06:45:05.910Z,15.60
2018-06-15T06:47:34.685Z,15.60
2018-06-15T06:52:32.070Z,15.70
2018-06-15T06:55:01.454Z,15.70
2018-06-15T06:57:30.246Z,15.70
2018-06-15T07:02:27.745Z,15.70
2018-06-15T07:04:56.506Z,15.70
2018-06-15T07:07:25.289Z,15.80
2018-06-15T07:09:54.057Z,15.80
2018-06-15T07:12:22.846Z,15.80
2018-06-15T07:14:54.593Z,15.80
2018-06-15T07:17:23.573Z,15.80
2018-06-15T07:19:52.407Z,15.80
2018-06-15T07:22:21.422Z,15.90
2018-06-15T07:24:50.331Z,15.90
2018-06-15T07:29:47.762Z,15.90
2018-06-15T07:32:16.586Z,16.00
2018-06-15T07:34:45.377Z,16.00
2018-06-15T07:37:14.162Z,16.00
2018-06-15T07:39:42.922Z,16.00
2018-06-15T07:42:11.695Z,16.10
2018-06-15T07:44:40.454Z,16.10
2018-06-15T07:47:09.245Z,16.10
2018-06-15T07:49:38.082Z,16.20
2018-06-15T07:52:06.907Z,16.20
2018-06-15T07:54:35.653Z,16.20
2018-06-15T07:57:04.562Z,16.20
2018-06-15T08:02:01.774Z,16.30
2018-06-15T08:04:30.635Z,16.40
2018-06-15T08:06:59.497Z,16.40
2018-06-15T08:09:28.263Z,16.40
2018-06-15T08:11:57.022Z,16.40
2018-06-15T08:14:25.783Z,16.40
2018-06-15T08:16:54.577Z,16.50
2018-06-15T08:19:23.333Z,16.50
2018-06-15T08:21:52.489Z,16.60
2018-06-15T08:24:21.341Z,16.60
2018-06-15T08:26:50.122Z,16.60
2018-06-15T08:31:47.341Z,16.70
2018-06-15T08:34:16.114Z,16.70
2018-06-15T08:36:44.881Z,16.70
2018-06-15T08:39:13.656Z,16.80
2018-06-15T08:44:11.072Z,17.00
2018-06-15T08:46:39.830Z,16.90
2018-06-15T08:49:08.609Z,17.00
2018-06-15T08:51:37.381Z,17.10
2018-06-15T08:54:06.173Z,17.30
2018-06-15T08:59:03.453Z,17.30
2018-06-15T09:04:00.709Z,17.40
2018-06-15T09:06:29.486Z,17.50
2018-06-15T09:08:58.261Z,17.60
2018-06-15T09:11:27.038Z,17.70
2018-06-15T09:13:55.805Z,17.80
2018-06-15T09:16:24.561Z,17.90
2018-06-15T09:21:21.829Z,18.10
2018-06-15T09:26:19.058Z,18.20
2018-06-15T09:28:47.829Z,18.30
2018-06-15T09:31:16.582Z,18.40
2018-06-15T09:33:45.362Z,18.60
2018-06-15T09:41:11.105Z,18.10
2018-06-15T09:43:39.886Z,18.20
2018-06-15T09:46:08.650Z,18.50
2018-06-15T09:48:41.577Z,18.80
2018-06-15T09:51:10.473Z,19.00
2018-06-15T09:53:39.321Z,19.20
2018-06-15T09:56:08.077Z,19.30
2018-06-15T09:58:36.886Z,19.40
2018-06-15T10:01:08.378Z,19.50
2018-06-15T10:03:38.101Z,19.60
2018-06-15T10:08:35.881Z,20.10
2018-06-15T10:13:33.493Z,20.40
2018-06-15T10:16:02.491Z,20.70
2018-06-15T10:18:31.246Z,20.50
2018-06-15T10:21:00.000Z,20.20
2018-06-15T10:23:28.773Z,20.00
2018-06-15T10:25:57.540Z,20.30
2018-06-15T10:28:26.309Z,20.70
2018-06-15T10:30:55.173Z,20.90
2018-06-15T10:35:52.585Z,21.60
2018-06-15T10:38:21.327Z,21.60
2018-06-15T10:40:50.268Z,21.50
2018-06-15T10:43:19.029Z,21.50
2018-06-15T10:45:47.926Z,21.20
2018-06-15T10:48:16.693Z,21.10
2018-06-15T10:53:13.927Z,20.80
2018-06-15T10:55:42.705Z,21.10
2018-06-15T10:58:11.446Z,21.80
2018-06-15T11:00:40.213Z,21.80
2018-06-15T11:03:09.006Z,21.50
2018-06-15T11:05:37.768Z,21.20
2018-06-15T11:08:06.539Z,20.80
2018-06-15T11:10:35.325Z,20.70
2018-06-15T11:13:04.145Z,21.10
2018-06-15T11:15:33.176Z,21.90
2018-06-15T11:18:01.918Z,22.60
2018-06-15T11:20:30.733Z,23.00
2018-06-15T11:25:27.951Z,23.20
2018-06-15T11:27:57.098Z,23.20
2018-06-15T11:30:26.045Z,22.60
2018-06-15T11:32:54.773Z,22.40
2018-06-15T11:35:23.552Z,22.20
2018-06-15T11:37:52.321Z,22.20
2018-06-15T11:40:21.362Z,22.20
2018-06-15T11:45:18.879Z,22.30
2018-06-15T11:47:47.680Z,23.10
2018-06-15T11:50:16.469Z,23.70
2018-06-15T11:52:45.216Z,23.80
2018-06-15T11:55:13.981Z,23.50
2018-06-15T12:00:11.290Z,22.90
2018-06-15T12:02:40.166Z,22.70
2018-06-15T12:05:08.930Z,22.50
2018-06-15T12:10:06.402Z,22.40
2018-06-15T12:15:03.634Z,23.00
2018-06-15T12:17:32.405Z,23.80
2018-06-15T12:20:01.257Z,24.00
2018-06-15T12:24:58.529Z,23.70
2018-06-15T12:32:24.431Z,23.50
2018-06-15T12:34:53.257Z,24.30
2018-06-15T12:37:22.018Z,25.00
2018-06-15T12:39:50.961Z,25.10
2018-06-15T12:42:19.741Z,24.70
2018-06-15T12:49:45.481Z,24.40
2018-06-15T12:52:14.246Z,24.50
2018-06-15T12:54:43.003Z,24.80
2018-06-15T12:57:11.766Z,25.60
2018-06-15T12:59:40.547Z,25.70
2018-06-15T13:02:09.433Z,25.50
2018-06-15T13:09:35.117Z,25.90
2018-06-15T13:12:03.900Z,25.80
2018-06-15T13:14:32.635Z,25.80
2018-06-15T13:17:01.394Z,25.70
2018-06-15T13:19:30.127Z,25.40
2018-06-15T13:21:58.881Z,25.10
2018-06-15T13:24:32.210Z,25.00
2018-06-15T13:34:26.539Z,24.50
2018-06-15T13:36:55.458Z,24.50
2018-06-15T13:39:24.219Z,24.40
2018-06-15T13:41:52.997Z,24.40
2018-06-15T13:44:21.801Z,24.40
2018-06-15T13:49:19.225Z,24.30
2018-06-15T13:51:48.006Z,24.20
2018-06-15T13:54:16.753Z,24.20
2018-06-15T13:59:14.043Z,24.40
2018-06-15T14:01:42.803Z,24.40
2018-06-15T14:04:11.567Z,24.40
2018-06-15T14:06:40.329Z,24.60
2018-06-15T14:09:09.841Z,24.70
2018-06-15T14:11:38.929Z,25.20
2018-06-15T14:14:07.714Z,25.40
2018-06-15T14:16:36.469Z,25.30
2018-06-15T14:19:05.238Z,25.30
2018-06-15T14:21:33.981Z,25.60
2018-06-15T14:24:02.730Z,26.10
2018-06-15T14:33:57.906Z,27.90
2018-06-15T14:36:26.857Z,28.20
2018-06-15T14:38:55.730Z,28.60
2018-06-15T14:41:24.639Z,29.00
2018-06-15T14:43:53.513Z,28.30
2018-06-15T14:46:22.261Z,27.80
2018-06-15T14:48:51.015Z,27.30
2018-06-15T14:51:19.778Z,26.80
2018-06-15T14:53:48.562Z,26.80
2018-06-15T14:56:17.453Z,26.50
2018-06-15T14:58:46.240Z,26.30
2018-06-15T15:01:15.005Z,26.30
2018-06-15T15:03:43.737Z,26.10
2018-06-15T15:06:12.525Z,26.20
2018-06-15T15:08:41.267Z,26.10
2018-06-15T15:11:10.104Z,26.00
2018-06-15T15:13:38.869Z,26.00
2018-06-15T15:16:07.741Z,26.00
2018-06-15T15:18:36.496Z,26.20
2018-06-15T15:21:05.253Z,26.30
2018-06-15T15:23:34.054Z,25.50
2018-06-15T15:26:02.814Z,25.20
2018-06-15T15:28:31.584Z,25.60
2018-06-15T15:31:00.365Z,25.70
2018-06-15T15:33:29.144Z,25.80
2018-06-15T15:35:58.006Z,25.30
2018-06-15T15:40:55.237Z,24.60
2018-06-15T15:43:24.010Z,24.60
2018-06-15T15:45:52.771Z,24.70
2018-06-15T15:48:21.634Z,24.40
2018-06-15T15:50:50.385Z,24.00
2018-06-15T15:53:19.156Z,24.00
2018-06-15T15:55:47.909Z,24.10
2018-06-15T16:00:45.117Z,23.90
2018-06-15T16:03:13.880Z,23.70
2018-06-15T16:05:42.641Z,23.30
2018-06-15T16:08:11.410Z,23.60
2018-06-15T16:10:40.253Z,23.40
2018-06-15T16:13:09.013Z,23.80
2018-06-15T16:18:06.253Z,23.90
2018-06-15T16:20:35.090Z,23.80
2018-06-15T16:23:03.830Z,23.90
2018-06-15T16:25:32.601Z,23.90
2018-06-15T16:28:01.356Z,24.00
2018-06-15T16:30:30.106Z,23.70
2018-06-15T16:32:58.868Z,23.40
2018-06-15T16:35:27.665Z,23.10
2018-06-15T16:37:56.445Z,22.90
2018-06-15T16:40:25.202Z,22.80
2018-06-15T16:42:53.961Z,22.90
2018-06-15T16:45:22.733Z,22.90
2018-06-15T16:47:51.486Z,22.70
2018-06-15T16:50:20.241Z,22.60
2018-06-15T16:52:48.997Z,22.80
2018-06-15T16:55:17.757Z,22.90
2018-06-15T16:57:46.619Z,23.00
2018-06-15T17:00:15.402Z,22.90
2018-06-15T17:02:44.153Z,22.70
2018-06-15T17:05:12.925Z,22.60
2018-06-15T17:07:41.680Z,22.40
2018-06-15T17:10:10.417Z,22.50
2018-06-15T17:12:39.202Z,22.50
2018-06-15T17:15:07.993Z,22.20
2018-06-15T17:17:36.814Z,22.10
2018-06-15T17:20:05.586Z,22.00
2018-06-15T17:22:34.364Z,21.80
2018-06-15T17:25:03.139Z,21.80
2018-06-15T17:27:32.163Z,22.00
2018-06-15T17:30:00.942Z,22.30
2018-06-15T17:32:29.906Z,22.80
2018-06-15T17:34:58.698Z,22.90
2018-06-15T17:37:27.663Z,22.90
2018-06-15T17:42:24.858Z,24.00
2018-06-15T17:44:53.625Z,23.90
2018-06-15T17:47:22.406Z,23.80
2018-06-15T17:49:51.161Z,24.00
2018-06-15T17:54:48.413Z,24.50
2018-06-15T17:57:17.182Z,24.60
2018-06-15T17:59:45.972Z,24.30
2018-06-15T18:02:14.713Z,23.90
2018-06-15T18:04:43.469Z,24.10
2018-06-15T18:07:12.238Z,24.20
2018-06-15T18:09:40.996Z,23.90
2018-06-15T18:12:09.748Z,23.80
2018-06-15T18:17:07.113Z,24.00
2018-06-15T18:22:04.325Z,24.20
2018-06-15T18:24:33.313Z,23.80
2018-06-15T18:27:02.065Z,23.50
2018-06-15T18:31:59.305Z,23.40
2018-06-15T18:34:28.185Z,23.30
2018-06-15T18:36:56.973Z,23.20
2018-06-15T18:39:25.725Z,22.80
2018-06-15T18:41:54.530Z,22.90
2018-06-15T18:44:23.270Z,22.90
2018-06-15T18:49:20.510Z,22.60
2018-06-15T18:51:49.257Z,22.60
2018-06-15T18:54:18.015Z,22.50
2018-06-15T18:56:46.953Z,22.40
2018-06-15T18:59:15.714Z,22.30
2018-06-15T19:04:12.936Z,21.90
2018-06-15T19:06:43.285Z,21.70
2018-06-15T19:09:12.405Z,21.60
2018-06-15T19:16:38.272Z,21.30
2018-06-15T19:21:36.221Z,21.10
2018-06-15T19:24:05.632Z,21.00
2018-06-15T19:26:34.509Z,20.90
2018-06-15T19:29:03.247Z,20.80
2018-06-15T19:31:31.957Z,20.70
2018-06-15T19:34:00.754Z,20.70
2018-06-15T19:36:29.520Z,20.60
2018-06-15T19:38:58.319Z,20.50
2018-06-15T19:41:27.153Z,20.40
2018-06-15T19:48:52.912Z,20.10
2018-06-15T19:53:50.157Z,19.90
2018-06-15T19:56:18.933Z,19.90
2018-06-15T19:58:47.701Z,19.80
2018-06-15T20:01:16.445Z,19.70
2018-06-15T20:03:45.220Z,19.60
2018-06-15T20:06:13.986Z,19.60
2018-06-15T20:08:42.901Z,19.40
2018-06-15T20:11:11.689Z,19.20
2018-06-15T20:13:40.601Z,19.10
2018-06-15T20:16:09.369Z,19.00
2018-06-15T20:18:38.189Z,18.90
2018-06-15T20:21:07.043Z,18.80
2018-06-15T20:23:35.966Z,18.80
2018-06-15T20:26:05.133Z,18.70
2018-06-15T20:28:33.887Z,18.60
2018-06-15T20:31:02.751Z,18.40
2018-06-15T20:33:31.614Z,18.40
2018-06-15T20:36:00.381Z,18.30
2018-06-15T20:38:29.170Z,18.20
2018-06-15T20:40:57.940Z,18.20
2018-06-15T20:43:26.836Z,18.10
2018-06-15T20:45:55.709Z,18.10
2018-06-15T20:48:24.740Z,18.00
2018-06-15T20:50:53.529Z,18.00
2018-06-15T20:53:22.299Z,17.90
2018-06-15T20:55:51.302Z,17.90
2018-06-15T20:58:20.059Z,17.80
2018-06-15T21:00:48.885Z,17.80
2018-06-15T21:03:17.681Z,17.70
2018-06-15T21:05:46.485Z,17.70
2018-06-15T21:10:43.729Z,17.60
2018-06-15T21:13:12.501Z,17.50
2018-06-15T21:15:41.265Z,17.50
2018-06-15T21:18:10.053Z,17.40
2018-06-15T21:20:38.825Z,17.40
2018-06-15T21:23:07.601Z,17.40
2018-06-15T21:25:36.379Z,17.30
2018-06-15T21:33:02.070Z,17.30
2018-06-15T21:35:30.838Z,17.20
2018-06-15T21:37:59.747Z,17.20
2018-06-15T21:40:28.506Z,17.20
2018-06-15T21:42:57.268Z,17.10
2018-06-15T21:45:26.026Z,17.20
2018-06-15T21:47:54.778Z,17.10
2018-06-15T21:50:23.559Z,17.10
2018-06-15T21:52:52.301Z,17.00
2018-06-15T21:55:21.089Z,17.10
2018-06-15T21:57:49.925Z,17.00
2018-06-15T22:00:18.686Z,17.00
2018-06-15T22:02:47.458Z,17.00
2018-06-15T22:05:16.262Z,17.00
2018-06-15T22:07:45.042Z,17.00
2018-06-15T22:10:13.855Z,17.00
2018-06-15T22:15:11.165Z,16.90
2018-06-15T22:17:39.943Z,17.00
2018-06-15T22:20:08.695Z,17.00
2018-06-15T22:22:37.490Z,17.00
2018-06-15T22:27:34.762Z,17.00
2018-06-15T22:32:31.977Z,17.00
2018-06-15T22:35:00.724Z,17.10
2018-06-15T22:37:29.497Z,17.10
2018-06-15T22:39:58.257Z,17.10
2018-06-15T22:42:27.014Z,17.10
2018-06-15T22:44:55.753Z,17.10
2018-06-15T22:47:24.510Z,17.10
2018-06-15T22:49:53.267Z,17.10
2018-06-15T22:52:22.031Z,17.10
2018-06-15T22:57:19.310Z,17.20
2018-06-15T23:02:16.538Z,17.20
2018-06-15T23:04:45.309Z,17.20
2018-06-15T23:07:14.086Z,17.20
2018-06-15T23:09:42.893Z,17.20
2018-06-15T23:12:11.669Z,17.10
2018-06-15T23:14:40.479Z,17.10
2018-06-15T23:17:09.186Z,17.10
2018-06-15T23:19:37.938Z,17.00
2018-06-15T23:22:06.733Z,17.10
2018-06-15T23:24:35.493Z,17.10
2018-06-15T23:27:04.506Z,17.10
2018-06-15T23:29:33.249Z,17.10
2018-06-15T23:34:30.481Z,17.20
2018-06-15T23:36:59.269Z,17.20
2018-06-15T23:39:28.035Z,17.20
2018-06-15T23:41:56.825Z,17.20
2018-06-15T23:44:25.577Z,17.20
2018-06-15T23:49:22.817Z,17.20
2018-06-15T23:51:51.599Z,17.20
2018-06-15T23:54:20.356Z,17.20
2018-06-15T23:56:49.101Z,17.20
